METAR Data
IDs: Format: Raw Decoded Include TAF

Data at: 0110 UTC 25 Mar 2019

KCWI 250056Z AUTO 05011KT 10SM OVC020 07/06 A3007 RMK AO2 SLP211 T00720061
KCWI 250049Z AUTO 06011KT 9SM FEW013 OVC020 07/06 A3006 RMK AO2
KCWI 242356Z AUTO 06014KT 7SM OVC011 08/07 A3004 RMK AO2 SLP203 T00780067 10100 20078 51003
KCWI 242351Z AUTO 06012KT 8SM OVC011 08/07 A3004 RMK AO2
KCWI 242256Z AUTO 07011KT 9SM OVC009 08/07 A3004 RMK AO2 SLP203 T00830067
KCWI 242156Z AUTO 06010KT 8SM OVC011 08/07 A3003 RMK AO2 SLP200 T00830067
KCWI 242056Z AUTO 07011KT 10SM OVC011 09/07 A3002 RMK AO2 SLP194 T00940072 56003
KCWI 241956Z AUTO 10007KT 10SM OVC011 09/07 A3002 RMK AO2 SLP195 T00940072
KCWI 241951Z AUTO 11009KT 10SM OVC011 09/07 A3002 RMK AO2
KCWI 241856Z AUTO 10009KT 10SM OVC009 09/07 A3003 RMK AO2 SLP196 T00890072
KCWI 241834Z AUTO 13009KT 10SM BKN009 OVC018 09/07 A3003 RMK AO2
KCWI 241820Z AUTO 13009KT 10SM SCT009 BKN020 OVC027 09/08 A3004 RMK AO2
KCWI 241756Z AUTO 12009KT 10SM OVC027 08/07 A3005 RMK AO2 SLP204 60003 T00830072 10083 20050 58006
KCWI 241724Z AUTO 13008KT 10SM BKN025 OVC031 08/07 A3006 RMK AO2
KCWI 241656Z AUTO 14011KT 10SM OVC031 08/07 A3007 RMK AO2 RAB21E45 SLP212 P0000 T00830067
KCWI 241652Z AUTO 15010KT 10SM OVC031 08/06 A3007 RMK AO2 RAB21E45 P0000
KCWI 241556Z AUTO 14011KT 9SM OVC024 07/07 A3007 RMK AO2 SLP211 T00720067
KCWI 241456Z AUTO 15009KT 3SM BR OVC026 07/06 A3008 RMK AO2 RAE55 SLP215 P0000 60003 T00670061 57001
KCWI 241417Z AUTO 15009KT 3SM -RA BR SCT003 OVC019 06/06 A3008 RMK AO2 P0000
KCWI 241356Z AUTO 14007KT 2SM -RA BR OVC003 06/06 A3008 RMK AO2 SLP216 P0001 T00610061
KCWI 241347Z AUTO 14008KT 2 1/2SM -RA BR OVC003 06/06 A3008 RMK AO2 P0001
KCWI 241333Z AUTO 13008KT 1 1/2SM -RA BR OVC003 06/06 A3009 RMK AO2 P0001
KCWI 241256Z AUTO 11006KT 2SM -RA BR OVC003 06/05 A3008 RMK AO2 SLP216 P0002 T00560050
KCWI 241227Z AUTO 10006KT 2SM -RA BR OVC003 05/05 A3008 RMK AO2 P0001
KCWI 241202Z AUTO 09007KT 1 3/4SM -RA BR OVC003 05/05 A3008 RMK AO2 P0001
KCWI 241156Z AUTO 09006KT 3SM RA BR OVC003 05/05 A3009 RMK AO2 SLP217 P0002 60010 70010 T00500050 10072 20044 57006
KCWI 241142Z AUTO 09007KT 3SM -RA BR OVC003 05/05 A3009 RMK AO2 P0001
KCWI 241133Z AUTO 08006KT 2SM -RA BR OVC005 05/04 A3009 RMK AO2 P0001
KCWI 241103Z AUTO 07006KT 3SM -RA BR BKN005 OVC024 05/04 A3009 RMK AO2 P0000
KCWI 241056Z AUTO 08005KT 4SM -RA BR SCT007 OVC024 04/04 A3010 RMK AO2 SLP220 P0001 T00440044
KCWI 241046Z AUTO 08006KT 6SM -RA BR BKN026 OVC032 04/04 A3010 RMK AO2 P0001
KCWI 240956Z AUTO 08008KT 7SM -RA BKN036 OVC047 05/04 A3011 RMK AO2 SLP226 P0001 T00500044
KCWI 240856Z AUTO 09005KT 6SM RA BR BKN036 OVC049 05/04 A3012 RMK AO2 SLP228 P0005 60006 T00500039 58010
KCWI 240756Z AUTO 13005KT 10SM -RA OVC050 06/03 A3014 RMK AO2 RAB11 SLP235 P0001 T00560028
KCWI 240656Z AUTO 17006KT 10SM BKN080 OVC095 07/01 A3015 RMK AO2 SLP240 T00720006
KCWI 240556Z AUTO 14007KT 10SM SCT095 07/01 A3015 RMK AO2 SLP238 T00670011 10094 20067 401331033 58006
KCWI 240456Z AUTO 15010KT 10SM OVC120 07/01 A3017 RMK AO2 SLP244 T00720006
KCWI 240356Z AUTO 15008KT 10SM OVC110 07/01 A3017 RMK AO2 SLP245 T00720011
KCWI 240256Z AUTO 15007KT 10SM OVC110 08/02 A3017 RMK AO2 SLP245 T00780017 56006
KCWI 240156Z AUTO 15006KT 10SM CLR 08/01 A3018 RMK AO2 SLP249 T00830011
KCWI 240056Z AUTO 13010KT 10SM CLR 09/01 A3017 RMK AO2 SLP244 T00940011
KCWI 232356Z AUTO 14006KT 10SM CLR 10/01 A3019 RMK AO2 SLP254 T01000011 10133 20100 55012
KCWI 232256Z AUTO 16007KT 10SM CLR 12/00 A3019 RMK AO2 SLP252 T01170000
KCWI 232156Z AUTO 18011KT 10SM CLR 13/M01 A3020 RMK AO2 SLP254 T01331006
KCWI 232056Z AUTO 18008KT 10SM CLR 12/M01 A3023 RMK AO2 SLP264 T01221006 55016
KCWI 231956Z AUTO 15012G15KT 10SM CLR 12/M01 A3022 RMK AO2 SLP261 T01171006
KCWI 231856Z AUTO 16008KT 10SM CLR 12/00 A3026 RMK AO2 SLP273 T01170000
KCWI 231756Z AUTO 17007KT 10SM CLR 11/00 A3028 RMK AO2 SLP280 T01060000 10106 21033 58013
KCWI 231656Z AUTO 17006KT 10SM CLR 08/M01 A3029 RMK AO2 SLP287 T00831006
KCWI 231556Z AUTO 17009KT 10SM CLR 06/M02 A3031 RMK AO2 SLP295 T00611017
KCWI 231456Z AUTO 16009KT 10SM CLR 03/M02 A3032 RMK AO2 SLP296 T00331022 50005
KCWI 231356Z AUTO 17009KT 10SM CLR 02/M02 A3033 RMK AO2 SLP301 T00171022 FZRANO